Nearby METAR Reports

 

KLEX - Lexington, Kentucky, USA
Distance from station: WNW 7mi, 11km
Updated: Sun, 19-Nov-2017 2:54am EST
Overcast
Overcast
 Wind from WNW
Wind: WNW 13 mph , 20 km/h, Gust: 25 mph , 41 km/h
Temperature: 41°F , 5°C
Wind Chill: 34°F , 1°C
Dew Point: 34°F , 1°C
Humidity: 76%
Barometer: 29.90 inHg , 1012.5 hPa
Clouds: Overcast
Visibility: 10 miles , 16 km
Cloud details: Partly cloudy 1900 ft
Overcast 2500 ft
2017/11/19 07:54 KLEX 190754Z 29011G22KT 10SM SCT019 OVC025 05/01 A2990 RMK AO2 SLP123 T00500011
KFFT - Frankfort, Kentucky, USA
Distance from station: WNW 26mi, 42km
Updated: Sun, 19-Nov-2017 2:53am EST
Overcast
Overcast
 Wind from NW
Wind: NW 8 mph , 13 km/h, Gust: 17 mph , 28 km/h
Temperature: 39°F , 4°C
Wind Chill: 33°F , 1°C
Dew Point: 30°F , -1°C
Humidity: 70%
Barometer: 29.90 inHg , 1012.5 hPa
Clouds: Overcast
Visibility: 10 miles , 16 km
Cloud details: Overcast 3400 ft
2017/11/19 07:53 KFFT 190753Z AUTO 31007G15KT 10SM OVC034 04/M01 A2990 RMK AO2 SLP124 T00441006
 
KIOB - Mount Sterling, Kentucky, USA
Distance from station: E 27mi, 44km
Updated: Sun, 19-Nov-2017 2:55am EST
Overcast
Overcast
 Wind from WNW
Wind: WNW 9 mph , 15 km/h
Temperature: 39°F , 4°C
Wind Chill: 33°F , 1°C
Dew Point: 37°F , 3°C
Humidity: 93%
Barometer: 29.89 inHg , 1012.2 hPa
Clouds: Overcast
Visibility: 10 miles , 16 km
Cloud details: Mostly cloudy 900 ft
Mostly cloudy 1600 ft
Overcast 3000 ft
2017/11/19 07:55 KIOB 190755Z AUTO 30008KT 10SM BKN009 BKN016 OVC030 04/03 A2989 RMK AO2 P0001
KDVK - Danville, Kentucky, USA
Distance from station: SSW 33mi, 53km
Updated: Sun, 19-Nov-2017 2:55am EST
Overcast
Overcast
 Wind from WNW
Wind: WNW 10 mph , 17 km/h
Temperature: 37°F , 3°C
Wind Chill: 30°F , -1°C
Dew Point: 34°F , 1°C
Humidity: 87%
Barometer: 29.93 inHg , 1013.5 hPa
Clouds: Overcast
Visibility: 10 miles , 16 km
Cloud details: Partly cloudy 2100 ft
Overcast 2800 ft
2017/11/19 07:55 KDVK 190755Z AUTO 29009KT 10SM SCT021 OVC028 03/01 A2993 RMK AO2